createdAt,value
2017-05-07T00:01:08.419Z,11.51
2017-05-07T00:02:19.628Z,11.41
2017-05-07T00:03:30.629Z,11.43
2017-05-07T00:04:41.682Z,11.45
2017-05-07T00:05:52.697Z,11.45
2017-05-07T00:07:03.684Z,11.31
2017-05-07T00:08:14.899Z,11.34
2017-05-07T00:09:25.915Z,11.26
2017-05-07T00:10:36.917Z,11.26
2017-05-07T00:11:47.917Z,11.23
2017-05-07T00:12:58.939Z,11.2
2017-05-07T00:14:09.941Z,11.23
2017-05-07T00:15:20.983Z,11.16
2017-05-07T00:16:32.184Z,11.16
2017-05-07T00:17:43.184Z,11.15
2017-05-07T00:18:54.191Z,11.26
2017-05-07T00:20:05.207Z,11.15
2017-05-07T00:21:16.258Z,11.08
2017-05-07T00:22:27.260Z,11.09
2017-05-07T00:23:38.264Z,11.05
2017-05-07T00:24:49.276Z,11.08
2017-05-07T00:26:00.504Z,11
2017-05-07T00:27:11.713Z,11.05
2017-05-07T00:28:22.913Z,10.98
2017-05-07T00:29:33.917Z,10.97
2017-05-07T00:30:44.927Z,11
2017-05-07T00:31:55.938Z,11.02
2017-05-07T00:33:07.141Z,10.94
2017-05-07T00:34:18.137Z,11.02
2017-05-07T00:35:29.150Z,11.02
2017-05-07T00:36:40.149Z,10.85
2017-05-07T00:37:51.204Z,10.9
2017-05-07T00:39:02.224Z,10.88
2017-05-07T00:40:13.224Z,10.84
2017-05-07T00:41:24.238Z,10.95
2017-05-07T00:42:35.241Z,10.87
2017-05-07T00:43:46.254Z,10.87
2017-05-07T00:44:57.258Z,10.85
2017-05-07T00:46:08.448Z,10.79
2017-05-07T00:47:19.454Z,10.83
2017-05-07T00:48:30.503Z,10.76
2017-05-07T00:49:41.509Z,10.67
2017-05-07T00:50:52.717Z,10.75
2017-05-07T00:52:03.929Z,10.67
2017-05-07T00:53:14.937Z,10.65
2017-05-07T00:54:25.941Z,10.76
2017-05-07T00:55:37.144Z,10.72
2017-05-07T00:56:48.151Z,10.69
2017-05-07T00:57:59.165Z,10.7
2017-05-07T00:59:10.218Z,10.67
2017-05-07T01:00:21.241Z,10.67
2017-05-07T01:01:32.264Z,10.73
2017-05-07T01:02:43.275Z,10.67
2017-05-07T01:03:54.285Z,10.63
2017-05-07T01:05:05.705Z,10.58
2017-05-07T01:06:16.707Z,10.65
2017-05-07T01:07:27.719Z,10.66
2017-05-07T01:08:38.731Z,10.73
2017-05-07T01:09:49.797Z,10.59
2017-05-07T01:11:00.807Z,10.69
2017-05-07T01:12:11.804Z,10.65
2017-05-07T01:13:22.802Z,10.58
2017-05-07T01:14:33.844Z,10.61
2017-05-07T01:15:44.865Z,10.58
2017-05-07T01:16:55.877Z,10.47
2017-05-07T01:18:07.089Z,10.47
2017-05-07T01:19:18.095Z,10.42
2017-05-07T01:20:29.101Z,10.36
2017-05-07T01:21:40.318Z,10.41
2017-05-07T01:22:51.527Z,10.41
2017-05-07T01:24:02.536Z,10.39
2017-05-07T01:25:13.793Z,10.32
2017-05-07T01:26:25.008Z,10.28
2017-05-07T01:27:36.021Z,10.26
2017-05-07T01:28:47.029Z,10.32
2017-05-07T01:29:58.038Z,10.35
2017-05-07T01:31:09.045Z,10.28
2017-05-07T01:32:20.051Z,10.35
2017-05-07T01:33:31.067Z,10.28
2017-05-07T01:34:42.264Z,10.29
2017-05-07T01:35:53.267Z,10.25
2017-05-07T01:37:04.278Z,10.25
2017-05-07T01:38:15.288Z,10.2
2017-05-07T01:39:26.297Z,10.18
2017-05-07T01:40:37.335Z,10.15
2017-05-07T01:41:48.338Z,10.14
2017-05-07T01:42:59.416Z,10.11
2017-05-07T01:44:10.620Z,10.17
2017-05-07T01:45:21.621Z,10.13
2017-05-07T01:46:32.616Z,10.11
2017-05-07T01:47:43.624Z,10.13
2017-05-07T01:48:54.636Z,10.15
2017-05-07T01:50:05.646Z,10.18
2017-05-07T01:51:16.645Z,10.1
2017-05-07T01:52:27.697Z,10.08
2017-05-07T01:53:38.707Z,10.03
2017-05-07T01:54:49.722Z,9.99
2017-05-07T01:56:00.922Z,9.99
2017-05-07T01:57:11.931Z,9.9
2017-05-07T01:58:23.329Z,9.85
2017-05-07T01:59:34.730Z,9.84
2017-05-07T02:00:45.733Z,9.84
2017-05-07T02:01:57.351Z,9.88
2017-05-07T02:03:08.405Z,9.82
2017-05-07T02:04:19.407Z,9.88
2017-05-07T02:05:30.407Z,9.88
2017-05-07T02:06:41.415Z,9.81
2017-05-07T02:07:52.429Z,9.8
2017-05-07T02:09:03.435Z,9.84
2017-05-07T02:10:14.482Z,9.8
2017-05-07T02:11:25.488Z,9.66
2017-05-07T02:12:36.488Z,9.67
2017-05-07T02:13:47.756Z,9.66
2017-05-07T02:14:58.771Z,9.67
2017-05-07T02:16:10.172Z,9.7
2017-05-07T02:17:21.170Z,9.57
2017-05-07T02:18:32.177Z,9.71
2017-05-07T02:19:43.182Z,9.52
2017-05-07T02:20:54.191Z,9.59
2017-05-07T02:22:05.404Z,9.45
2017-05-07T02:23:16.618Z,9.39
2017-05-07T02:24:27.881Z,9.26
2017-05-07T02:25:38.920Z,9.2
2017-05-07T02:26:49.933Z,9.21
2017-05-07T02:28:01.149Z,9.27
2017-05-07T02:29:12.160Z,9.21
2017-05-07T02:30:23.371Z,9.26
2017-05-07T02:31:34.382Z,9.34
2017-05-07T02:32:45.397Z,9.27
2017-05-07T02:33:56.415Z,9.29
2017-05-07T02:35:07.427Z,9.27
2017-05-07T02:36:18.429Z,9.32
2017-05-07T02:37:29.447Z,9.32
2017-05-07T02:38:40.489Z,9.27
2017-05-07T02:39:51.481Z,9.26
2017-05-07T02:41:02.516Z,9.29
2017-05-07T02:42:13.520Z,9.3
2017-05-07T02:43:24.525Z,9.24
2017-05-07T02:44:35.722Z,9.35
2017-05-07T02:45:46.734Z,9.35
2017-05-07T02:46:57.793Z,9.21
2017-05-07T02:48:08.785Z,9.23
2017-05-07T02:49:19.797Z,9.14
2017-05-07T02:50:30.803Z,9.2
2017-05-07T02:51:41.798Z,9.09
2017-05-07T02:52:52.806Z,9.14
2017-05-07T02:54:03.819Z,9.05
2017-05-07T02:55:14.826Z,9.05
2017-05-07T02:56:25.892Z,9.16
2017-05-07T02:57:36.884Z,9.16
2017-05-07T02:58:48.121Z,9.12
2017-05-07T02:59:59.329Z,9.12
2017-05-07T03:01:10.537Z,9.08
2017-05-07T03:02:21.544Z,9.12
2017-05-07T03:03:32.588Z,9.16
2017-05-07T03:04:43.599Z,9.08
2017-05-07T03:05:54.601Z,9.19
2017-05-07T03:07:05.661Z,9.04
2017-05-07T03:08:16.678Z,9.14
2017-05-07T03:09:27.884Z,9.04
2017-05-07T03:10:39.092Z,9.08
2017-05-07T03:11:50.107Z,8.97
2017-05-07T03:13:01.101Z,8.98
2017-05-07T03:14:12.106Z,8.95
2017-05-07T03:15:23.114Z,8.92
2017-05-07T03:16:34.112Z,8.9
2017-05-07T03:17:45.374Z,8.92
2017-05-07T03:18:56.376Z,8.89
2017-05-07T03:20:07.375Z,8.87
2017-05-07T03:21:18.381Z,8.92
2017-05-07T03:22:29.392Z,8.87
2017-05-07T03:23:40.403Z,8.85
2017-05-07T03:24:51.411Z,8.82
2017-05-07T03:26:02.419Z,8.87
2017-05-07T03:27:13.422Z,8.83
2017-05-07T03:28:24.489Z,8.82
2017-05-07T03:29:35.700Z,8.76
2017-05-07T03:30:46.698Z,8.72
2017-05-07T03:31:57.705Z,8.65
2017-05-07T03:33:08.719Z,8.65
2017-05-07T03:34:19.768Z,8.65
2017-05-07T03:35:30.787Z,8.69
2017-05-07T03:36:41.991Z,8.72
2017-05-07T03:37:53.006Z,8.74
2017-05-07T03:39:04.218Z,8.72
2017-05-07T03:40:15.230Z,8.69
2017-05-07T03:41:26.455Z,8.64
2017-05-07T03:42:37.453Z,8.69
2017-05-07T03:43:48.474Z,8.69
2017-05-07T03:44:59.475Z,8.68
2017-05-07T03:46:10.531Z,8.69
2017-05-07T03:47:21.534Z,8.71
2017-05-07T03:48:32.547Z,8.74
2017-05-07T03:49:43.551Z,8.68
2017-05-07T03:50:54.555Z,8.71
2017-05-07T03:52:05.765Z,8.72
2017-05-07T03:53:16.767Z,8.72
2017-05-07T03:54:27.986Z,8.69
2017-05-07T03:55:39.039Z,8.8
2017-05-07T03:56:50.085Z,8.68
2017-05-07T03:58:01.077Z,8.74
2017-05-07T03:59:12.090Z,8.68
2017-05-07T04:00:23.096Z,8.69
2017-05-07T04:01:34.104Z,8.71
2017-05-07T04:02:45.123Z,8.68
2017-05-07T04:03:56.124Z,8.72
2017-05-07T04:05:07.127Z,8.68
2017-05-07T04:06:18.176Z,8.74
2017-05-07T04:07:29.177Z,8.64
2017-05-07T04:08:40.384Z,8.71
2017-05-07T04:09:51.398Z,8.71
2017-05-07T04:11:02.611Z,8.82
2017-05-07T04:12:13.616Z,8.77
2017-05-07T04:13:24.811Z,8.74
2017-05-07T04:14:35.818Z,8.76
2017-05-07T04:15:46.807Z,8.79
2017-05-07T04:16:57.865Z,8.8
2017-05-07T04:18:08.866Z,8.8
2017-05-07T04:19:19.861Z,8.83
2017-05-07T04:20:31.099Z,8.82
2017-05-07T04:21:42.115Z,8.77
2017-05-07T04:22:53.121Z,8.76
2017-05-07T04:24:04.322Z,8.76
2017-05-07T04:25:15.360Z,8.79
2017-05-07T04:26:26.363Z,8.89
2017-05-07T04:27:37.407Z,8.92
2017-05-07T04:28:48.402Z,8.97
2017-05-07T04:29:59.414Z,8.92
2017-05-07T04:31:10.418Z,9
2017-05-07T04:32:21.427Z,8.97
2017-05-07T04:33:32.428Z,9.08
2017-05-07T04:34:43.448Z,9.12
2017-05-07T04:35:54.449Z,9.17
2017-05-07T04:37:05.450Z,9.17
2017-05-07T04:38:16.910Z,9.11
2017-05-07T04:39:27.908Z,9.37
2017-05-07T04:40:38.906Z,9.39
2017-05-07T04:41:49.919Z,9.29
2017-05-07T04:43:01.129Z,9.41
2017-05-07T04:44:12.134Z,9.39
2017-05-07T04:45:23.339Z,9.45
2017-05-07T04:46:34.343Z,9.44
2017-05-07T04:47:45.548Z,9.47
2017-05-07T04:48:56.559Z,9.45
2017-05-07T04:50:07.566Z,9.48
2017-05-07T04:51:18.585Z,9.57
2017-05-07T04:52:29.601Z,9.53
2017-05-07T04:53:40.614Z,9.7
2017-05-07T04:54:51.646Z,9.66
2017-05-07T04:56:02.706Z,9.67
2017-05-07T04:57:13.702Z,9.74
2017-05-07T04:58:24.708Z,9.88
2017-05-07T04:59:35.718Z,9.85
2017-05-07T05:00:46.721Z,10
2017-05-07T05:01:57.712Z,10
2017-05-07T05:03:08.723Z,10.05
2017-05-07T05:04:19.728Z,10.14
2017-05-07T05:05:30.943Z,10.14
2017-05-07T05:06:41.955Z,10.2
2017-05-07T05:07:52.969Z,10.17
2017-05-07T05:09:03.976Z,10.35
2017-05-07T05:10:15.040Z,10.33
2017-05-07T05:11:26.046Z,10.35
2017-05-07T05:12:37.053Z,10.47
2017-05-07T05:13:48.067Z,10.58
2017-05-07T05:14:59.074Z,10.7
2017-05-07T05:16:10.079Z,10.65
2017-05-07T05:17:21.093Z,10.73
2017-05-07T05:18:32.292Z,10.75
2017-05-07T05:19:43.301Z,10.8
2017-05-07T05:20:54.378Z,10.9
2017-05-07T05:22:05.590Z,10.84
2017-05-07T05:23:16.606Z,10.91
2017-05-07T05:24:27.617Z,10.9
2017-05-07T05:25:38.616Z,10.98
2017-05-07T05:26:49.621Z,10.94
2017-05-07T05:28:00.634Z,10.95
2017-05-07T05:29:11.637Z,11.08
2017-05-07T05:30:22.641Z,11.09
2017-05-07T05:31:33.905Z,11.16
2017-05-07T05:32:44.901Z,11.24
2017-05-07T05:33:55.914Z,11.27
2017-05-07T05:35:06.934Z,11.34
2017-05-07T05:36:17.937Z,11.31
2017-05-07T05:37:29.137Z,11.41
2017-05-07T05:38:40.152Z,11.41
2017-05-07T05:39:51.163Z,11.46
2017-05-07T05:41:02.382Z,11.49
2017-05-07T05:42:13.444Z,11.63
2017-05-07T05:43:24.451Z,11.59
2017-05-07T05:44:35.481Z,11.56
2017-05-07T05:45:46.485Z,11.56
2017-05-07T05:46:57.487Z,11.61
2017-05-07T05:48:08.495Z,11.67
2017-05-07T05:49:19.501Z,11.71
2017-05-07T05:50:30.699Z,11.67
2017-05-07T05:51:41.688Z,11.63
2017-05-07T05:52:52.698Z,11.64
2017-05-07T05:54:03.707Z,11.59
2017-05-07T05:55:14.713Z,11.59
2017-05-07T05:56:25.920Z,11.56
2017-05-07T05:57:36.923Z,11.73
2017-05-07T05:58:47.981Z,11.66
2017-05-07T05:59:58.989Z,11.75
2017-05-07T06:01:09.987Z,11.75
2017-05-07T06:02:20.998Z,11.82
2017-05-07T06:03:32.009Z,11.85
2017-05-07T06:04:43.023Z,11.95
2017-05-07T06:05:54.034Z,12
2017-05-07T06:07:05.264Z,12.07
2017-05-07T06:08:16.287Z,12.1
2017-05-07T06:09:27.390Z,12.08
2017-05-07T06:10:38.406Z,12.07
2017-05-07T06:11:49.419Z,12.2
2017-05-07T06:13:00.424Z,12.18
2017-05-07T06:14:11.652Z,12.34
2017-05-07T06:15:22.659Z,12.4
2017-05-07T06:16:33.671Z,12.41
2017-05-07T06:17:44.673Z,12.43
2017-05-07T06:18:55.661Z,12.52
2017-05-07T06:20:06.709Z,12.44
2017-05-07T06:21:17.751Z,12.48
2017-05-07T06:22:28.748Z,12.62
2017-05-07T06:23:39.775Z,12.59
2017-05-07T06:24:50.987Z,12.76
2017-05-07T06:26:02.002Z,12.77
2017-05-07T06:27:13.040Z,12.8
2017-05-07T06:28:24.056Z,12.89
2017-05-07T06:29:35.074Z,12.89
2017-05-07T06:30:46.134Z,12.7
2017-05-07T06:31:57.146Z,12.77
2017-05-07T06:33:08.168Z,12.8
2017-05-07T06:34:19.180Z,12.73
2017-05-07T06:35:30.179Z,12.71
2017-05-07T06:36:41.222Z,12.66
2017-05-07T06:37:52.242Z,12.56
2017-05-07T06:39:03.466Z,12.63
2017-05-07T06:40:14.476Z,12.65
2017-05-07T06:41:25.536Z,12.7
2017-05-07T06:42:36.544Z,12.65
2017-05-07T06:43:47.556Z,12.66
2017-05-07T06:44:58.576Z,12.61
2017-05-07T06:46:09.587Z,12.62
2017-05-07T06:47:20.587Z,12.58
2017-05-07T06:48:31.596Z,12.7
2017-05-07T06:49:42.604Z,12.66
2017-05-07T06:50:53.616Z,12.71
2017-05-07T06:52:04.636Z,12.65
2017-05-07T06:53:15.639Z,12.77
2017-05-07T06:54:26.646Z,12.8
2017-05-07T06:55:37.651Z,12.86
2017-05-07T06:56:48.854Z,12.94
2017-05-07T06:57:59.856Z,12.95
2017-05-07T06:59:10.868Z,12.99
2017-05-07T07:00:21.872Z,13.06
2017-05-07T07:01:32.876Z,13.14
2017-05-07T07:02:43.927Z,13.06
2017-05-07T07:03:54.924Z,13.14
2017-05-07T07:05:05.948Z,13.13
2017-05-07T07:06:16.955Z,13.17
2017-05-07T07:07:27.965Z,13.19
2017-05-07T07:08:38.973Z,13.2
2017-05-07T07:09:49.985Z,13.17
2017-05-07T07:11:00.992Z,13.28
2017-05-07T07:12:11.987Z,13.39
2017-05-07T07:13:23.065Z,13.25
2017-05-07T07:14:34.085Z,13.48
2017-05-07T07:15:45.297Z,13.42
2017-05-07T07:16:56.500Z,13.44
2017-05-07T07:18:07.708Z,13.5
2017-05-07T07:19:18.710Z,13.6
2017-05-07T07:20:29.716Z,13.72
2017-05-07T07:21:40.724Z,13.84
2017-05-07T07:22:51.740Z,13.86
2017-05-07T07:24:02.809Z,13.88
2017-05-07T07:25:13.814Z,13.75
2017-05-07T07:26:24.837Z,13.86
2017-05-07T07:27:35.843Z,13.87
2017-05-07T07:28:46.857Z,13.9
2017-05-07T07:29:57.884Z,13.87
2017-05-07T07:31:08.891Z,13.86
2017-05-07T07:32:19.907Z,13.79
2017-05-07T07:33:30.916Z,13.84
2017-05-07T07:34:41.982Z,13.83
2017-05-07T07:35:52.984Z,13.88
2017-05-07T07:37:03.998Z,13.91
2017-05-07T07:38:15.009Z,13.9
2017-05-07T07:39:26.019Z,13.83
2017-05-07T07:40:37.222Z,13.87
2017-05-07T07:41:48.228Z,13.86
2017-05-07T07:42:59.232Z,13.9
2017-05-07T07:44:10.244Z,13.99
2017-05-07T07:45:21.250Z,14.05
2017-05-07T07:46:32.258Z,14.09
2017-05-07T07:47:43.274Z,14.08
2017-05-07T07:48:54.281Z,14.09
2017-05-07T07:50:05.483Z,14.05
2017-05-07T07:51:16.686Z,14.02
2017-05-07T07:52:27.695Z,14.01
2017-05-07T07:53:39.112Z,14.02
2017-05-07T07:54:50.112Z,14.06
2017-05-07T07:56:01.315Z,14.03
2017-05-07T07:57:12.721Z,14.15
2017-05-07T07:58:23.727Z,14.19
2017-05-07T07:59:34.943Z,14.21
2017-05-07T08:00:45.953Z,14.28
2017-05-07T08:01:57.015Z,14.31
2017-05-07T08:03:08.237Z,14.27
2017-05-07T08:04:19.242Z,14.41
2017-05-07T08:05:30.245Z,14.41
2017-05-07T08:06:41.442Z,14.42
2017-05-07T08:07:52.671Z,14.45
2017-05-07T08:09:03.686Z,14.61
2017-05-07T08:10:14.694Z,14.6
2017-05-07T08:11:25.762Z,14.66
2017-05-07T08:12:36.842Z,14.69
2017-05-07T08:13:47.851Z,14.8
2017-05-07T08:14:58.857Z,14.8
2017-05-07T08:16:09.865Z,14.8
2017-05-07T08:17:20.871Z,14.94
2017-05-07T08:18:31.881Z,14.95
2017-05-07T08:19:42.928Z,15.04
2017-05-07T08:20:53.949Z,14.98
2017-05-07T08:22:05.204Z,14.94
2017-05-07T08:23:16.225Z,14.94
2017-05-07T08:24:27.244Z,14.95
2017-05-07T08:25:38.263Z,14.94
2017-05-07T08:26:49.475Z,14.94
2017-05-07T08:28:00.484Z,14.94
2017-05-07T08:29:11.498Z,14.95
2017-05-07T08:30:22.502Z,14.94
2017-05-07T08:31:33.513Z,14.9
2017-05-07T08:32:44.573Z,14.86
2017-05-07T08:33:55.774Z,14.98
2017-05-07T08:35:06.993Z,14.94
2017-05-07T08:36:18.015Z,14.94
2017-05-07T08:37:29.035Z,15
2017-05-07T08:38:40.044Z,14.95
2017-05-07T08:39:51.051Z,14.89
2017-05-07T08:41:02.053Z,14.97
2017-05-07T08:42:13.073Z,14.97
2017-05-07T08:43:24.133Z,15
2017-05-07T08:44:35.355Z,15.01
2017-05-07T08:45:46.371Z,14.93
2017-05-07T08:46:57.373Z,14.95
2017-05-07T08:48:08.392Z,14.95
2017-05-07T08:49:19.661Z,14.98
2017-05-07T08:50:30.671Z,15
2017-05-07T08:51:41.685Z,15.01
2017-05-07T08:52:52.685Z,14.94
2017-05-07T08:54:03.702Z,14.97
2017-05-07T08:55:14.710Z,15.05
2017-05-07T08:56:25.724Z,15.13
2017-05-07T08:57:36.733Z,15.16
2017-05-07T08:58:47.748Z,15.19
2017-05-07T08:59:58.762Z,15.23
2017-05-07T09:01:09.760Z,15.22
2017-05-07T09:02:20.973Z,15.31
2017-05-07T09:03:32.166Z,15.38
2017-05-07T09:04:43.173Z,15.35
2017-05-07T09:05:54.185Z,15.53
2017-05-07T09:07:05.451Z,15.56
2017-05-07T09:08:16.450Z,15.58
2017-05-07T09:09:27.464Z,15.52
2017-05-07T09:10:38.892Z,15.59
2017-05-07T09:11:50.103Z,15.7
2017-05-07T09:13:01.109Z,15.83
2017-05-07T09:14:12.325Z,15.89
2017-05-07T09:15:23.341Z,15.96
2017-05-07T09:16:34.396Z,16.18
2017-05-07T09:17:45.405Z,16.32
2017-05-07T09:18:56.631Z,16.37
2017-05-07T09:20:07.637Z,16.44
2017-05-07T09:21:18.639Z,16.37
2017-05-07T09:22:29.650Z,16.39
2017-05-07T09:23:40.657Z,16.45
2017-05-07T09:24:51.881Z,16.58
2017-05-07T09:26:02.895Z,16.4
2017-05-07T09:27:14.160Z,16.34
2017-05-07T09:28:25.171Z,16.45
2017-05-07T09:29:36.179Z,16.48
2017-05-07T09:30:47.181Z,16.42
2017-05-07T09:31:58.194Z,16.51
2017-05-07T09:33:09.199Z,16.57
2017-05-07T09:34:20.202Z,16.67
2017-05-07T09:35:31.413Z,16.84
2017-05-07T09:36:42.439Z,17
2017-05-07T09:37:53.502Z,17.2
2017-05-07T09:39:04.518Z,17.35
2017-05-07T09:40:15.536Z,17.55
2017-05-07T09:41:26.536Z,17.79
2017-05-07T09:42:37.555Z,18.11
2017-05-07T09:43:48.768Z,18.05
2017-05-07T09:44:59.791Z,18.2
2017-05-07T09:46:10.802Z,18.47
2017-05-07T09:47:21.825Z,18.76
2017-05-07T09:48:32.887Z,18.96
2017-05-07T09:49:43.900Z,19.1
2017-05-07T09:50:55.113Z,19.27
2017-05-07T09:52:06.125Z,19.24
2017-05-07T09:53:17.136Z,19.24
2017-05-07T09:54:28.201Z,19.15
2017-05-07T09:55:39.426Z,18.99
2017-05-07T09:56:50.451Z,18.99
2017-05-07T09:58:01.877Z,19.1
2017-05-07T09:59:12.892Z,19.13
2017-05-07T10:00:24.112Z,19.24
2017-05-07T10:01:35.136Z,19.27
2017-05-07T10:02:46.153Z,19.42
2017-05-07T10:03:57.155Z,19.38
2017-05-07T10:05:08.225Z,19.37
2017-05-07T10:06:19.232Z,19.45
2017-05-07T10:07:30.444Z,19.46
2017-05-07T10:08:41.463Z,19.45
2017-05-07T10:09:52.687Z,19.43
2017-05-07T10:11:03.705Z,19.46
2017-05-07T10:12:14.709Z,19.64
2017-05-07T10:13:25.735Z,19.83
2017-05-07T10:14:36.753Z,19.89
2017-05-07T10:15:47.815Z,19.87
2017-05-07T10:16:58.859Z,19.97
2017-05-07T10:18:10.087Z,20.01
2017-05-07T10:19:21.121Z,19.92
2017-05-07T10:20:32.135Z,20.1
2017-05-07T10:21:43.170Z,20.2
2017-05-07T10:22:54.178Z,20.32
2017-05-07T10:24:05.208Z,20.32
2017-05-07T10:25:16.450Z,20.29
2017-05-07T10:26:27.519Z,20.25
2017-05-07T10:27:38.729Z,20.35
2017-05-07T10:28:49.750Z,20.37
2017-05-07T10:30:01.216Z,20.15
2017-05-07T10:31:12.646Z,19.95
2017-05-07T10:32:23.660Z,19.8
2017-05-07T10:33:34.680Z,19.85
2017-05-07T10:34:45.709Z,19.97
2017-05-07T10:35:56.723Z,20.07
2017-05-07T10:37:07.793Z,20.41
2017-05-07T10:38:18.806Z,20.74
2017-05-07T10:39:30.038Z,20.82
2017-05-07T10:40:41.057Z,20.94
2017-05-07T10:41:52.312Z,20.98
2017-05-07T10:43:03.324Z,21
2017-05-07T10:44:14.552Z,20.93
2017-05-07T10:45:25.591Z,20.82
2017-05-07T10:46:36.605Z,20.66
2017-05-07T10:47:48.078Z,20.64
2017-05-07T10:48:59.105Z,20.51
2017-05-07T10:50:10.123Z,20.46
2017-05-07T10:51:21.147Z,20.42
2017-05-07T10:52:32.374Z,20.29
2017-05-07T10:53:43.395Z,20.46
2017-05-07T10:54:54.420Z,20.29
2017-05-07T10:56:05.445Z,20.34
2017-05-07T10:57:16.483Z,20.29
2017-05-07T10:58:27.494Z,20.34
2017-05-07T10:59:38.920Z,20.29
2017-05-07T11:00:49.941Z,20.37
2017-05-07T11:02:00.958Z,20.42
2017-05-07T11:03:11.968Z,20.46
2017-05-07T11:04:22.986Z,20.42
2017-05-07T11:05:34.670Z,20.42
2017-05-07T11:06:45.684Z,20.4
2017-05-07T11:07:56.695Z,20.48
2017-05-07T11:09:07.716Z,20.66
2017-05-07T11:10:18.736Z,20.96
2017-05-07T11:11:30.164Z,21.31
2017-05-07T11:12:41.175Z,21.58
2017-05-07T11:13:52.189Z,21.67
2017-05-07T11:15:03.260Z,21.89
2017-05-07T11:16:14.264Z,22.2
2017-05-07T11:17:25.490Z,22.44
2017-05-07T11:18:36.503Z,22.38
2017-05-07T11:19:47.518Z,22.51
2017-05-07T11:20:58.735Z,22.46
2017-05-07T11:22:09.759Z,22.26
2017-05-07T11:23:20.773Z,21.99
2017-05-07T11:24:31.800Z,22
2017-05-07T11:25:42.845Z,21.94
2017-05-07T11:26:53.879Z,21.99
2017-05-07T11:28:04.894Z,22.14
2017-05-07T11:29:15.897Z,22.08
2017-05-07T11:30:26.981Z,22.09
2017-05-07T11:31:37.987Z,22.23
2017-05-07T11:32:49.203Z,22.29
2017-05-07T11:34:00.434Z,22.3
2017-05-07T11:35:11.461Z,22.23
2017-05-07T11:36:22.477Z,22.05
2017-05-07T11:37:33.722Z,21.99
2017-05-07T11:38:44.737Z,21.9
2017-05-07T11:39:55.757Z,21.78
2017-05-07T11:41:06.827Z,21.68
2017-05-07T11:42:17.854Z,21.58
2017-05-07T11:43:29.087Z,21.45
2017-05-07T11:44:40.111Z,21.22
2017-05-07T11:45:51.119Z,21.18
2017-05-07T11:47:02.166Z,21.11
2017-05-07T11:48:13.173Z,21.09
2017-05-07T11:49:24.204Z,20.94
2017-05-07T11:50:35.432Z,20.97
2017-05-07T11:51:46.523Z,20.81
2017-05-07T11:52:57.561Z,20.68
2017-05-07T11:54:08.579Z,20.76
2017-05-07T11:55:19.804Z,20.58
2017-05-07T11:56:30.817Z,20.42
2017-05-07T11:57:41.882Z,20.44
2017-05-07T11:58:52.903Z,20.37
2017-05-07T12:00:03.927Z,20.38
2017-05-07T12:01:15.349Z,20.35
2017-05-07T12:02:26.763Z,20.38
2017-05-07T12:03:37.780Z,20.38
2017-05-07T12:04:48.796Z,20.4
2017-05-07T12:06:00.027Z,20.51
2017-05-07T12:07:11.047Z,20.44
2017-05-07T12:08:22.051Z,20.34
2017-05-07T12:09:33.114Z,20.41
2017-05-07T12:10:44.122Z,20.37
2017-05-07T12:11:55.334Z,20.38
2017-05-07T12:13:06.354Z,20.48
2017-05-07T12:14:17.373Z,20.42
2017-05-07T12:15:28.394Z,20.34
2017-05-07T12:16:39.402Z,20.27
2017-05-07T12:17:50.409Z,20.3
2017-05-07T12:19:01.473Z,20.26
2017-05-07T12:20:12.694Z,20.29
2017-05-07T12:21:23.698Z,20.3
2017-05-07T12:22:34.710Z,20.41
2017-05-07T12:23:45.920Z,20.25
2017-05-07T12:24:57.134Z,20.22
2017-05-07T12:26:08.157Z,20.4
2017-05-07T12:27:19.180Z,20.35
2017-05-07T12:28:30.197Z,20.42
2017-05-07T12:29:41.271Z,20.46
2017-05-07T12:30:52.286Z,20.66
2017-05-07T12:32:03.299Z,20.76
2017-05-07T12:33:14.303Z,20.85
2017-05-07T12:34:25.318Z,20.78
2017-05-07T12:35:36.537Z,20.91
2017-05-07T12:36:47.755Z,20.81
2017-05-07T12:37:58.768Z,20.81
2017-05-07T12:39:09.783Z,20.81
2017-05-07T12:40:20.991Z,20.83
2017-05-07T12:41:32.008Z,20.9
2017-05-07T12:42:43.226Z,20.86
2017-05-07T12:43:54.235Z,20.86
2017-05-07T12:45:05.525Z,20.85
2017-05-07T12:46:16.574Z,20.91
2017-05-07T12:47:27.797Z,20.96
2017-05-07T12:48:38.820Z,20.93
2017-05-07T12:49:49.847Z,21.01
2017-05-07T12:51:00.864Z,21.03
2017-05-07T12:52:11.884Z,21.13
2017-05-07T12:53:23.104Z,21.16
2017-05-07T12:54:34.118Z,21.21
2017-05-07T12:55:45.179Z,21.18
2017-05-07T12:56:56.398Z,21.3
2017-05-07T12:58:07.411Z,21.28
2017-05-07T12:59:18.438Z,21.31
2017-05-07T13:00:29.458Z,21.3
2017-05-07T13:01:40.678Z,21.12
2017-05-07T13:02:51.695Z,21.18
2017-05-07T13:04:02.707Z,21.12
2017-05-07T13:05:13.729Z,21.03
2017-05-07T13:06:24.743Z,21.08
2017-05-07T13:07:35.757Z,21.08
2017-05-07T13:08:46.972Z,21.03
2017-05-07T13:09:57.982Z,21.01
2017-05-07T13:11:09.190Z,21.01
2017-05-07T13:12:20.255Z,21.03
2017-05-07T13:13:31.269Z,21.01
2017-05-07T13:14:42.279Z,21.03
2017-05-07T13:15:53.320Z,21.06
2017-05-07T13:17:04.341Z,21.22
2017-05-07T13:18:15.362Z,21.16
2017-05-07T13:19:26.769Z,21.08
2017-05-07T13:20:37.989Z,21.08
2017-05-07T13:21:49.005Z,21.21
2017-05-07T13:23:00.089Z,21.21
2017-05-07T13:24:11.098Z,21.34
2017-05-07T13:25:22.113Z,21.31
2017-05-07T13:26:33.140Z,21.51
2017-05-07T13:27:44.143Z,21.53
2017-05-07T13:28:55.163Z,21.51
2017-05-07T13:30:06.178Z,21.64
2017-05-07T13:31:17.199Z,21.74
2017-05-07T13:32:28.227Z,21.71
2017-05-07T13:33:39.299Z,21.64
2017-05-07T13:34:50.317Z,21.61
2017-05-07T13:36:01.353Z,21.58
2017-05-07T13:37:12.401Z,21.58
2017-05-07T13:38:23.414Z,21.46
2017-05-07T13:39:34.439Z,21.36
2017-05-07T13:40:45.460Z,21.43
2017-05-07T13:41:56.478Z,21.49
2017-05-07T13:43:07.686Z,21.43
2017-05-07T13:44:18.756Z,21.49
2017-05-07T13:45:29.773Z,21.41
2017-05-07T13:46:40.788Z,21.4
2017-05-07T13:47:51.828Z,21.45
2017-05-07T13:49:02.846Z,21.46
2017-05-07T13:50:14.063Z,21.49
2017-05-07T13:51:25.076Z,21.53
2017-05-07T13:52:36.301Z,21.53
2017-05-07T13:53:47.537Z,21.51
2017-05-07T13:54:58.603Z,21.48
2017-05-07T13:56:10.065Z,21.52
2017-05-07T13:57:21.078Z,21.49
2017-05-07T13:58:32.086Z,21.51
2017-05-07T13:59:43.308Z,21.4
2017-05-07T14:00:54.333Z,21.4
2017-05-07T14:02:05.550Z,21.33
2017-05-07T14:03:16.565Z,21.31
2017-05-07T14:04:27.592Z,21.34
2017-05-07T14:05:38.615Z,21.41
2017-05-07T14:06:49.631Z,21.48
2017-05-07T14:08:00.650Z,21.38
2017-05-07T14:09:11.680Z,21.38
2017-05-07T14:10:22.716Z,21.31
2017-05-07T14:11:33.732Z,21.3
2017-05-07T14:12:44.746Z,21.15
2017-05-07T14:13:55.964Z,21.12
2017-05-07T14:15:06.988Z,21.15
2017-05-07T14:16:18.045Z,21.25
2017-05-07T14:17:29.049Z,21.36
2017-05-07T14:18:40.060Z,21.41
2017-05-07T14:19:51.070Z,21.28
2017-05-07T14:21:02.071Z,21.25
2017-05-07T14:22:13.096Z,21.28
2017-05-07T14:23:24.123Z,21.21
2017-05-07T14:24:35.342Z,21.13
2017-05-07T14:25:46.367Z,21.16
2017-05-07T14:26:57.437Z,21.13
2017-05-07T14:28:08.445Z,21.28
2017-05-07T14:29:19.453Z,21.27
2017-05-07T14:30:30.467Z,21.28
2017-05-07T14:31:41.479Z,21.33
2017-05-07T14:32:52.694Z,21.27
2017-05-07T14:34:04.111Z,21.31
2017-05-07T14:35:15.331Z,21.37
2017-05-07T14:36:26.749Z,21.41
2017-05-07T14:37:37.808Z,21.49
2017-05-07T14:38:48.825Z,21.48
2017-05-07T14:39:59.836Z,21.59
2017-05-07T14:41:10.864Z,21.55
2017-05-07T14:42:21.889Z,21.52
2017-05-07T14:43:32.895Z,21.52
2017-05-07T14:44:43.913Z,21.49
2017-05-07T14:45:55.133Z,21.56
2017-05-07T14:47:06.161Z,21.51
2017-05-07T14:48:17.226Z,21.58
2017-05-07T14:49:31.050Z,21.66
2017-05-07T14:50:43.360Z,21.62
2017-05-07T14:51:54.814Z,21.62
2017-05-07T14:53:06.714Z,21.7
2017-05-07T14:54:18.322Z,21.64
2017-05-07T14:55:29.329Z,21.64
2017-05-07T14:56:40.347Z,21.61
2017-05-07T14:57:51.360Z,21.62
2017-05-07T14:59:02.421Z,21.66
2017-05-07T15:00:13.645Z,21.56
2017-05-07T15:01:24.651Z,21.55
2017-05-07T15:02:35.666Z,21.49
2017-05-07T15:03:47.094Z,21.49
2017-05-07T15:04:58.313Z,21.43
2017-05-07T15:06:09.528Z,21.41
2017-05-07T15:07:20.553Z,21.43
2017-05-07T15:08:31.572Z,21.49
2017-05-07T15:09:42.581Z,21.48
2017-05-07T15:10:53.664Z,21.58
2017-05-07T15:12:04.678Z,21.67
2017-05-07T15:13:15.677Z,21.51
2017-05-07T15:14:26.717Z,21.52
2017-05-07T15:15:37.968Z,21.33
2017-05-07T15:16:48.994Z,21.21
2017-05-07T15:18:00.017Z,21.25
2017-05-07T15:19:11.024Z,21.23
2017-05-07T15:20:22.287Z,21.06
2017-05-07T15:21:33.291Z,20.96
2017-05-07T15:22:44.312Z,20.96
2017-05-07T15:23:55.520Z,20.94
2017-05-07T15:25:06.531Z,20.93
2017-05-07T15:26:17.550Z,20.91